Time;durP1;ratioP1;P1;durP2;ratioP2;P2;SDS_P1;SDS_P2;PMS_P1;PMS_P2;Temp;Humidity;BMP_temperature;BMP_pressure;BME280_temperature;BME280_humidity;BME280_pressure;Samples;Min_cycle;Max_cycle;Signal;HPM_P1;HPM_P2
2024/04/17 00:00:37;;;;;;;6.75;2.30;;;3.90;100.00;;;;;;5440493;26;20801;-67
2024/04/17 00:03:04;;;;;;;5.45;2.20;;;3.90;100.00;;;;;;5409169;26;19995;-67
2024/04/17 00:05:32;;;;;;;7.53;2.22;;;3.90;100.00;;;;;;5439929;26;20055;-67
2024/04/17 00:07:59;;;;;;;4.93;2.22;;;3.90;100.00;;;;;;5420583;26;20046;-66
2024/04/17 00:10:26;;;;;;;4.88;2.63;;;3.90;100.00;;;;;;5442229;26;20026;-74
2024/04/17 00:12:53;;;;;;;4.07;2.25;;;4.00;100.00;;;;;;5445055;26;19995;-74
2024/04/17 00:15:20;;;;;;;5.63;2.70;;;4.00;100.00;;;;;;5444342;26;20103;-74
2024/04/17 00:17:47;;;;;;;9.63;3.45;;;4.10;100.00;;;;;;5449063;26;19999;-74
2024/04/17 00:20:14;;;;;;;4.10;2.30;;;4.10;100.00;;;;;;5450520;26;20003;-74
2024/04/17 00:22:41;;;;;;;6.10;2.60;;;4.10;100.00;;;;;;5410759;26;19995;-74
2024/04/17 00:25:08;;;;;;;9.95;3.47;;;4.10;100.00;;;;;;5410452;26;20017;-74
2024/04/17 00:27:35;;;;;;;3.92;2.55;;;4.10;100.00;;;;;;5441659;26;20787;-74
2024/04/17 00:30:02;;;;;;;3.05;1.80;;;4.00;100.00;;;;;;5445992;26;20006;-74
2024/04/17 00:32:29;;;;;;;4.68;2.45;;;4.00;100.00;;;;;;5439934;26;20021;-74
2024/04/17 00:34:55;;;;;;;7.43;2.38;;;4.00;100.00;;;;;;5441896;26;20068;-75
2024/04/17 00:37:22;;;;;;;6.45;2.90;;;4.00;100.00;;;;;;5441222;26;19999;-74
2024/04/17 00:39:49;;;;;;;7.43;2.58;;;4.00;100.00;;;;;;5445356;26;19999;-74
2024/04/17 00:42:16;;;;;;;7.43;2.67;;;4.00;100.00;;;;;;5439574;26;20013;-74
2024/04/17 00:44:43;;;;;;;6.05;2.50;;;3.90;100.00;;;;;;5413241;26;20016;-74
2024/04/17 00:47:10;;;;;;;8.38;2.90;;;3.90;100.00;;;;;;5430313;26;20679;-74
2024/04/17 00:49:38;;;;;;;7.28;2.30;;;3.90;100.00;;;;;;5454094;26;20002;-74
2024/04/17 00:52:05;;;;;;;7.57;2.55;;;3.90;100.00;;;;;;5445759;26;20007;-74
2024/04/17 00:54:32;;;;;;;7.45;2.92;;;3.90;100.00;;;;;;5445902;26;19998;-67
2024/04/17 00:57:00;;;;;;;6.15;2.45;;;3.80;100.00;;;;;;5448797;26;20003;-67
2024/04/17 00:59:28;;;;;;;6.65;2.72;;;3.80;100.00;;;;;;5444016;26;19999;-67
2024/04/17 01:01:57;;;;;;;4.93;2.22;;;3.80;100.00;;;;;;5443701;26;20007;-67
2024/04/17 01:04:27;;;;;;;6.03;2.60;;;3.80;100.00;;;;;;5408626;26;19999;-67
2024/04/17 01:06:55;;;;;;;3.38;2.03;;;3.80;100.00;;;;;;5448791;26;20050;-67
2024/04/17 01:09:22;;;;;;;12.63;2.83;;;3.80;100.00;;;;;;5441629;26;20017;-67
2024/04/17 01:11:51;;;;;;;6.78;2.35;;;3.70;100.00;;;;;;5441522;26;20010;-67
2024/04/17 01:14:19;;;;;;;6.82;2.67;;;3.70;100.00;;;;;;5409905;26;19999;-67
2024/04/17 01:16:49;;;;;;;9.48;3.33;;;3.70;100.00;;;;;;5407427;26;20447;-67
2024/04/17 01:19:18;;;;;;;6.40;2.25;;;3.60;100.00;;;;;;5413424;26;20009;-67
2024/04/17 01:21:48;;;;;;;5.97;2.75;;;3.60;100.00;;;;;;5406954;26;20021;-66
2024/04/17 01:24:18;;;;;;;7.22;2.20;;;3.60;100.00;;;;;;5409420;26;20003;-67
2024/04/17 01:26:46;;;;;;;4.90;2.38;;;3.60;100.00;;;;;;5410285;26;20014;-67
2024/04/17 01:30:05;;;;;;;5.30;2.95;;;3.60;100.00;;;;;;5407767;26;19995;-67
2024/04/17 01:32:32;;;;;;;4.82;2.53;;;3.60;100.00;;;;;;5449686;26;20769;-74
2024/04/17 01:34:59;;;;;;;5.72;2.63;;;3.50;100.00;;;;;;5449080;26;20002;-74
2024/04/17 01:37:26;;;;;;;5.22;2.85;;;3.50;100.00;;;;;;5441936;26;19995;-74
2024/04/17 01:39:53;;;;;;;9.50;2.72;;;3.50;100.00;;;;;;5441011;26;19999;-74
2024/04/17 01:42:20;;;;;;;9.68;2.70;;;3.40;100.00;;;;;;5411215;26;20010;-74
2024/04/17 01:44:47;;;;;;;4.25;2.65;;;3.40;100.00;;;;;;5436196;26;20007;-74
2024/04/17 01:47:14;;;;;;;7.90;2.53;;;3.40;100.00;;;;;;5410116;26;20013;-74
2024/04/17 01:49:41;;;;;;;6.30;2.28;;;3.40;100.00;;;;;;5450032;26;19994;-74
2024/04/17 01:52:09;;;;;;;4.22;2.08;;;3.40;100.00;;;;;;5444536;26;20051;-74
2024/04/17 01:54:36;;;;;;;5.45;2.15;;;3.30;100.00;;;;;;5458590;26;19998;-74
2024/04/17 01:57:03;;;;;;;5.32;2.50;;;3.30;100.00;;;;;;5447163;26;20002;-74
2024/04/17 01:59:30;;;;;;;6.00;2.50;;;3.30;100.00;;;;;;5442254;26;20041;-74
2024/04/17 02:01:57;;;;;;;5.30;2.83;;;3.30;100.00;;;;;;5446399;26;20598;-74
2024/04/17 02:04:24;;;;;;;9.85;3.00;;;3.30;100.00;;;;;;5409553;26;20011;-74
2024/04/17 02:06:51;;;;;;;11.02;3.30;;;3.20;100.00;;;;;;5439055;26;20481;-74
2024/04/17 02:09:18;;;;;;;5.32;2.58;;;3.10;100.00;;;;;;5408822;26;20120;-73
2024/04/17 02:11:45;;;;;;;13.63;2.70;;;3.10;100.00;;;;;;5449638;26;20013;-74
2024/04/17 02:14:12;;;;;;;5.28;2.53;;;3.00;100.00;;;;;;5435594;26;20011;-74
2024/04/17 02:16:39;;;;;;;6.70;2.92;;;2.90;100.00;;;;;;5441965;26;19999;-74
2024/04/17 02:19:07;;;;;;;5.78;2.90;;;2.90;100.00;;;;;;5407436;26;19995;-74
2024/04/17 02:21:34;;;;;;;6.35;2.60;;;2.90;100.00;;;;;;5455946;26;19998;-74
2024/04/17 02:24:01;;;;;;;9.10;2.78;;;2.80;100.00;;;;;;5439972;26;20009;-74
2024/04/17 02:26:28;;;;;;;16.92;2.88;;;2.80;100.00;;;;;;5439822;26;19999;-74
2024/04/17 02:28:55;;;;;;;10.35;3.10;;;2.70;100.00;;;;;;5441071;26;20014;-74
2024/04/17 02:31:22;;;;;;;5.57;2.80;;;2.60;100.00;;;;;;5454656;26;20017;-74
2024/04/17 02:33:49;;;;;;;7.45;2.70;;;2.50;100.00;;;;;;5450095;26;20351;-74
2024/04/17 02:36:16;;;;;;;18.95;2.95;;;2.50;100.00;;;;;;5443292;26;20018;-73
2024/04/17 02:38:43;;;;;;;6.40;2.70;;;2.40;100.00;;;;;;5409515;26;19995;-74
2024/04/17 02:41:10;;;;;;;7.88;4.25;;;2.40;100.00;;;;;;5416341;26;20003;-73
2024/04/17 02:43:37;;;;;;;9.57;3.28;;;2.30;100.00;;;;;;5426204;26;20006;-74
2024/04/17 02:46:04;;;;;;;7.90;2.95;;;2.30;100.00;;;;;;5449064;26;20009;-73
2024/04/17 02:48:30;;;;;;;5.95;3.00;;;2.20;100.00;;;;;;5428894;26;21187;-73
2024/04/17 02:50:57;;;;;;;7.38;2.95;;;2.10;100.00;;;;;;5414780;26;20013;-73
2024/04/17 02:53:24;;;;;;;7.25;2.38;;;2.10;100.00;;;;;;5439864;26;20026;-73
2024/04/17 02:55:51;;;;;;;11.27;2.90;;;2.10;100.00;;;;;;5441306;26;20010;-73
2024/04/17 02:58:18;;;;;;;6.10;2.53;;;2.00;100.00;;;;;;5438586;26;20527;-72
2024/04/17 03:00:45;;;;;;;5.65;3.22;;;1.90;100.00;;;;;;5442433;26;20011;-72
2024/04/17 03:03:12;;;;;;;9.30;3.33;;;1.90;100.00;;;;;;5448266;26;20002;-73
2024/04/17 03:05:39;;;;;;;6.35;3.28;;;1.90;100.00;;;;;;5443156;26;20014;-73
2024/04/17 03:08:06;;;;;;;11.05;2.95;;;1.80;100.00;;;;;;5440702;26;20017;-73
2024/04/17 03:10:33;;;;;;;6.90;2.80;;;1.80;100.00;;;;;;5442615;26;20015;-73
2024/04/17 03:13:00;;;;;;;8.85;3.30;;;1.70;100.00;;;;;;5444203;26;19999;-72
2024/04/17 03:15:27;;;;;;;15.50;3.25;;;1.70;100.00;;;;;;5440314;26;20011;-73
2024/04/17 03:18:12;;;;;;;9.13;3.20;;;1.70;100.00;;;;;;5443554;26;20026;-74
2024/04/17 03:21:01;;;;;;;9.23;2.75;;;1.70;100.00;;;;;;5442554;26;20031;-73
2024/04/17 03:23:29;;;;;;;6.10;2.72;;;1.70;100.00;;;;;;5445509;26;20860;-74
2024/04/17 03:25:58;;;;;;;6.63;2.95;;;1.60;100.00;;;;;;5409220;26;20340;-74
2024/04/17 03:28:28;;;;;;;4.20;2.60;;;1.60;100.00;;;;;;5410343;26;20006;-74
2024/04/17 03:30:59;;;;;;;11.88;2.65;;;1.50;100.00;;;;;;5425188;26;19998;-74
2024/04/17 03:33:27;;;;;;;9.75;3.00;;;1.50;100.00;;;;;;5437982;26;20010;-74
2024/04/17 03:35:58;;;;;;;5.53;3.08;;;1.50;100.00;;;;;;5434750;26;20012;-74
2024/04/17 03:38:26;;;;;;;12.00;3.38;;;1.50;100.00;;;;;;5409408;26;20002;-74
2024/04/17 03:40:54;;;;;;;10.25;3.22;;;1.50;100.00;;;;;;5447152;26;20003;-74
2024/04/17 03:43:22;;;;;;;23.02;3.50;;;1.50;100.00;;;;;;5437990;26;20019;-74
2024/04/17 03:45:49;;;;;;;10.18;2.90;;;1.50;100.00;;;;;;5432868;26;20017;-73
2024/04/17 03:48:16;;;;;;;7.85;2.92;;;1.40;100.00;;;;;;5438527;26;20006;-73
2024/04/17 03:50:43;;;;;;;12.73;3.75;;;1.40;100.00;;;;;;5430500;26;19999;-74
2024/04/17 03:53:10;;;;;;;7.32;3.10;;;1.40;100.00;;;;;;5394569;26;20018;-75
2024/04/17 03:55:37;;;;;;;7.00;3.58;;;1.40;100.00;;;;;;5446877;26;20076;-74
2024/04/17 03:58:04;;;;;;;7.40;3.13;;;1.30;100.00;;;;;;5447436;26;20324;-75
2024/04/17 04:00:31;;;;;;;7.60;2.80;;;1.20;100.00;;;;;;5444568;26;20014;-72
2024/04/17 04:02:58;;;;;;;4.50;1.80;;;1.20;100.00;;;;;;5408493;26;20785;-65
2024/04/17 04:05:26;;;;;;;3.17;1.75;;;1.10;100.00;;;;;;5439957;26;20331;-64
2024/04/17 04:07:54;;;;;;;6.07;2.80;;;1.00;100.00;;;;;;5399874;26;20560;-64
2024/04/17 04:10:21;;;;;;;6.70;2.53;;;0.90;100.00;;;;;;5436354;26;20021;-72
2024/04/17 04:12:48;;;;;;;10.57;2.78;;;0.80;100.00;;;;;;5439156;26;20043;-72
2024/04/17 04:15:15;;;;;;;3.08;1.98;;;0.80;100.00;;;;;;5440449;26;19998;-72
2024/04/17 04:17:44;;;;;;;5.90;2.40;;;0.80;100.00;;;;;;5439933;26;20003;-71
2024/04/17 04:20:11;;;;;;;4.32;2.35;;;0.80;100.00;;;;;;5437491;26;20010;-72
2024/04/17 04:22:38;;;;;;;10.65;2.60;;;0.80;100.00;;;;;;5436349;26;20048;-65
2024/04/17 04:25:05;;;;;;;7.90;3.42;;;0.90;100.00;;;;;;5411808;26;20003;-66
2024/04/17 04:27:32;;;;;;;7.25;3.80;;;0.90;100.00;;;;;;5436832;26;20012;-66
2024/04/17 04:29:59;;;;;;;7.18;3.33;;;1.00;100.00;;;;;;5437965;26;20230;-66
2024/04/17 04:32:26;;;;;;;9.57;4.18;;;1.10;100.00;;;;;;5454527;26;20076;-66
2024/04/17 04:34:54;;;;;;;9.07;3.83;;;1.10;100.00;;;;;;5406072;26;20316;-66
2024/04/17 04:37:23;;;;;;;11.93;4.63;;;1.10;100.00;;;;;;5442578;26;20026;-66
2024/04/17 04:39:50;;;;;;;17.35;4.00;;;1.10;100.00;;;;;;5406897;26;20819;-66
2024/04/17 04:42:17;;;;;;;8.55;4.30;;;1.10;100.00;;;;;;5435742;26;20010;-67
2024/04/17 04:44:45;;;;;;;12.18;3.85;;;1.10;100.00;;;;;;5436718;26;20003;-70
2024/04/17 04:47:14;;;;;;;13.75;5.00;;;1.20;100.00;;;;;;5436416;26;20023;-69
2024/04/17 04:49:41;;;;;;;9.88;3.70;;;1.20;100.00;;;;;;5437769;26;20031;-68
2024/04/17 04:52:08;;;;;;;8.95;3.60;;;1.20;100.00;;;;;;5407168;26;20027;-67
2024/04/17 04:54:35;;;;;;;7.65;3.90;;;1.20;100.00;;;;;;5436786;26;20007;-69
2024/04/17 04:57:03;;;;;;;8.93;4.38;;;1.30;100.00;;;;;;5436816;26;20003;-69
2024/04/17 04:59:30;;;;;;;8.65;4.28;;;1.30;100.00;;;;;;5441777;26;19995;-66
2024/04/17 05:01:58;;;;;;;8.95;4.30;;;1.30;100.00;;;;;;5441017;26;20019;-67
2024/04/17 05:04:25;;;;;;;12.38;4.38;;;1.40;100.00;;;;;;5438673;26;19995;-67
2024/04/17 05:06:52;;;;;;;13.23;4.25;;;1.50;100.00;;;;;;5443730;26;20014;-74
2024/04/17 05:09:19;;;;;;;12.48;4.30;;;1.50;100.00;;;;;;5445207;26;19998;-70
2024/04/17 05:11:46;;;;;;;15.90;4.32;;;1.50;100.00;;;;;;5455047;26;20064;-69
2024/04/17 05:14:13;;;;;;;12.20;4.63;;;1.60;100.00;;;;;;5422451;26;20033;-69
2024/04/17 05:16:40;;;;;;;21.33;5.57;;;1.60;100.00;;;;;;5448030;26;20521;-69
2024/04/17 05:19:07;;;;;;;10.23;4.68;;;1.70;100.00;;;;;;5444395;26;20059;-69
2024/04/17 05:21:34;;;;;;;14.70;5.88;;;1.70;100.00;;;;;;5441528;26;20009;-73
2024/04/17 05:24:01;;;;;;;16.00;5.13;;;1.80;100.00;;;;;;5435153;26;20002;-69
2024/04/17 05:26:28;;;;;;;13.82;5.95;;;1.90;100.00;;;;;;5445483;26;20029;-68
2024/04/17 05:28:55;;;;;;;15.63;6.15;;;1.90;100.00;;;;;;5407631;26;20002;-67
2024/04/17 05:31:22;;;;;;;23.98;6.97;;;2.00;100.00;;;;;;5450018;26;20017;-68
2024/04/17 05:33:49;;;;;;;19.48;6.63;;;2.00;100.00;;;;;;5411323;26;20017;-68
2024/04/17 05:36:16;;;;;;;15.63;6.50;;;2.20;100.00;;;;;;5439897;26;19995;-68
2024/04/17 05:38:43;;;;;;;15.93;6.70;;;2.30;100.00;;;;;;5435149;26;20003;-68
2024/04/17 05:41:10;;;;;;;16.27;6.50;;;2.40;100.00;;;;;;5408119;26;20771;-67
2024/04/17 05:43:37;;;;;;;19.70;6.90;;;2.60;100.00;;;;;;5407892;26;20003;-67
2024/04/17 05:46:04;;;;;;;34.33;8.02;;;2.70;100.00;;;;;;5418598;26;20035;-67
2024/04/17 05:48:31;;;;;;;18.63;7.47;;;2.80;100.00;;;;;;5442070;26;20003;-67
2024/04/17 05:50:58;;;;;;;30.50;9.20;;;2.90;100.00;;;;;;5458220;26;19999;-67
2024/04/17 05:53:26;;;;;;;20.85;8.63;;;3.00;100.00;;;;;;5420233;26;20447;-67
2024/04/17 05:55:52;;;;;;;26.83;8.93;;;3.10;100.00;;;;;;5458560;26;20003;-68
2024/04/17 05:58:19;;;;;;;24.77;9.43;;;3.20;100.00;;;;;;5456365;26;19994;-67
2024/04/17 06:00:46;;;;;;;18.95;8.00;;;3.30;100.00;;;;;;5447007;26;20030;-67
2024/04/17 06:03:13;;;;;;;24.88;8.93;;;3.40;100.00;;;;;;5439870;26;20050;-67
2024/04/17 06:05:40;;;;;;;17.40;8.90;;;3.40;100.00;;;;;;5448809;26;19999;-67
2024/04/17 06:08:07;;;;;;;20.35;8.90;;;3.50;100.00;;;;;;5399389;26;20015;-68
2024/04/17 06:10:34;;;;;;;28.65;9.13;;;3.70;100.00;;;;;;5453001;26;20031;-68
2024/04/17 06:13:01;;;;;;;21.60;9.48;;;3.70;100.00;;;;;;5440384;26;19995;-67
2024/04/17 06:15:28;;;;;;;25.98;9.68;;;3.80;100.00;;;;;;5453365;26;19998;-67
2024/04/17 06:17:55;;;;;;;19.45;9.10;;;3.90;100.00;;;;;;5455143;26;20416;-67
2024/04/17 06:20:23;;;;;;;20.00;8.60;;;4.00;100.00;;;;;;5452119;26;20006;-67
2024/04/17 06:22:50;;;;;;;18.27;10.38;;;4.20;100.00;;;;;;5432647;26;20327;-67
2024/04/17 06:25:17;;;;;;;30.88;9.52;;;4.40;100.00;;;;;;5445736;26;20091;-68
2024/04/17 06:27:43;;;;;;;22.83;8.68;;;4.70;100.00;;;;;;5418485;26;19998;-68
2024/04/17 06:30:10;;;;;;;21.13;9.45;;;4.90;100.00;;;;;;5428851;26;20002;-67
2024/04/17 06:32:42;;;;;;;27.10;10.43;;;5.00;100.00;;;;;;5440137;26;19995;-67
2024/04/17 06:35:09;;;;;;;23.13;9.00;;;5.30;100.00;;;;;;5449402;26;20002;-67
2024/04/17 06:37:36;;;;;;;24.00;9.02;;;5.70;100.00;;;;;;5454547;26;20014;-68
2024/04/17 06:40:03;;;;;;;24.08;12.55;;;5.90;100.00;;;;;;5454060;26;20592;-68
2024/04/17 06:42:30;;;;;;;35.35;13.30;;;6.20;100.00;;;;;;5441000;26;20011;-68
2024/04/17 06:44:58;;;;;;;43.97;23.85;;;7.00;100.00;;;;;;5448432;26;20002;-68
2024/04/17 06:47:26;;;;;;;39.20;25.67;;;7.90;100.00;;;;;;5444711;26;19999;-68
2024/04/17 06:49:54;;;;;;;55.42;33.65;;;8.50;100.00;;;;;;5398086;26;20002;-68
2024/04/17 06:52:23;;;;;;;30.40;19.42;;;8.40;100.00;;;;;;5401138;26;20538;-69
2024/04/17 06:54:52;;;;;;;24.38;12.85;;;8.40;100.00;;;;;;5421610;26;20006;-68
2024/04/17 06:57:19;;;;;;;22.15;11.35;;;8.20;100.00;;;;;;5445726;26;20018;-68
2024/04/17 06:59:46;;;;;;;19.00;7.95;;;8.30;100.00;;;;;;5454056;26;20006;-68
2024/04/17 07:02:13;;;;;;;16.83;7.57;;;8.30;100.00;;;;;;5423060;26;19998;-69
2024/04/17 07:04:41;;;;;;;11.93;6.95;;;8.50;100.00;;;;;;5444592;26;20572;-68
2024/04/17 07:07:08;;;;;;;12.13;6.15;;;8.70;100.00;;;;;;5450515;26;20022;-68
2024/04/17 07:09:35;;;;;;;14.00;4.30;;;8.80;100.00;;;;;;5460431;26;20339;-69
2024/04/17 07:12:03;;;;;;;11.32;4.88;;;9.00;100.00;;;;;;5449772;26;20046;-69
2024/04/17 07:14:30;;;;;;;10.85;5.53;;;9.30;100.00;;;;;;5448250;26;20011;-69
2024/04/17 07:16:57;;;;;;;7.30;3.40;;;9.60;100.00;;;;;;5455089;26;20018;-69
2024/04/17 07:19:25;;;;;;;5.13;3.13;;;9.80;100.00;;;;;;5452607;26;20013;-69
2024/04/17 07:21:53;;;;;;;7.28;2.92;;;10.40;100.00;;;;;;5422436;26;20672;-69
2024/04/17 07:24:24;;;;;;;12.50;2.92;;;11.00;100.00;;;;;;5454528;26;19998;-69
2024/04/17 07:26:56;;;;;;;11.70;2.60;;;11.60;100.00;;;;;;5405709;26;20467;-69
2024/04/17 07:29:23;;;;;;;3.65;2.10;;;12.10;100.00;;;;;;5453497;26;20400;-69
2024/04/17 07:31:50;;;;;;;6.53;1.95;;;12.00;100.00;;;;;;5458201;26;20013;-69
2024/04/17 07:34:20;;;;;;;4.90;1.95;;;11.90;100.00;;;;;;5440913;26;19998;-69
2024/04/17 07:36:50;;;;;;;5.38;1.60;;;11.70;100.00;;;;;;5420679;26;20041;-69
2024/04/17 07:39:17;;;;;;;5.13;1.65;;;11.80;100.00;;;;;;5407794;26;19995;-69
2024/04/17 07:41:44;;;;;;;3.53;1.48;;;11.60;100.00;;;;;;5445140;26;19999;-69
2024/04/17 07:44:11;;;;;;;6.15;1.73;;;11.40;100.00;;;;;;5434709;26;20011;-69
2024/04/17 07:46:38;;;;;;;4.50;1.48;;;11.40;100.00;;;;;;5408072;26;19994;-69
2024/04/17 07:49:04;;;;;;;16.40;1.92;;;11.80;100.00;;;;;;5437577;26;20013;-69
2024/04/17 07:51:31;;;;;;;6.22;1.55;;;11.60;100.00;;;;;;5418202;26;19999;-69
2024/04/17 07:53:58;;;;;;;7.15;1.60;;;11.10;100.00;;;;;;5445239;26;20007;-69
2024/04/17 07:56:26;;;;;;;4.18;1.70;;;11.10;100.00;;;;;;5447951;26;19999;-69
2024/04/17 07:58:52;;;;;;;20.13;2.75;;;11.20;100.00;;;;;;5447412;26;20438;-69
2024/04/17 08:01:19;;;;;;;7.88;1.40;;;11.40;100.00;;;;;;5442328;26;20003;-69
2024/04/17 08:03:46;;;;;;;7.47;1.50;;;11.40;100.00;;;;;;5447569;26;20006;-69
2024/04/17 08:06:17;;;;;;;4.68;1.45;;;11.20;100.00;;;;;;5446813;26;20013;-69
2024/04/17 08:08:44;;;;;;;5.22;1.70;;;10.90;100.00;;;;;;5451112;26;20083;-69
2024/04/17 08:11:10;;;;;;;4.30;2.13;;;10.60;100.00;;;;;;5453043;26;20013;-68
2024/04/17 08:13:39;;;;;;;7.40;2.13;;;10.40;100.00;;;;;;5438215;26;20003;-69
2024/04/17 08:16:06;;;;;;;2.80;1.60;;;10.10;100.00;;;;;;5455341;26;20002;-69
2024/04/17 08:18:33;;;;;;;1.90;1.10;;;9.90;100.00;;;;;;5398827;26;20101;-69
2024/04/17 08:20:59;;;;;;;5.78;1.65;;;9.40;100.00;;;;;;5437013;26;20014;-68
2024/04/17 08:23:26;;;;;;;6.40;1.50;;;9.70;100.00;;;;;;5406636;26;20010;-69
2024/04/17 08:25:59;;;;;;;11.35;3.70;;;10.30;100.00;;;;;;5438611;26;20017;-69
2024/04/17 08:28:27;;;;;;;4.95;1.52;;;10.40;100.00;;;;;;5449303;26;20014;-69
2024/04/17 08:30:53;;;;;;;5.70;1.77;;;10.50;100.00;;;;;;5453932;26;20010;-69
2024/04/17 08:33:20;;;;;;;5.40;1.40;;;11.10;100.00;;;;;;5453453;26;20874;-69
2024/04/17 08:35:48;;;;;;;2.13;0.90;;;12.00;100.00;;;;;;5446312;26;19999;-69
2024/04/17 08:38:14;;;;;;;6.40;1.65;;;12.10;100.00;;;;;;5420817;26;20009;-69
2024/04/17 08:40:42;;;;;;;1.55;0.90;;;12.10;100.00;;;;;;5448777;26;20010;-69
2024/04/17 08:43:24;;;;;;;2.38;0.88;;;12.00;100.00;;;;;;5430284;26;20570;-69
2024/04/17 08:45:55;;;;;;;7.10;1.30;;;11.80;100.00;;;;;;5418901;26;20026;-69
2024/04/17 08:48:23;;;;;;;6.95;1.40;;;11.10;100.00;;;;;;5447345;26;19994;-69
2024/04/17 08:50:51;;;;;;;3.75;1.10;;;10.90;100.00;;;;;;5452095;26;20088;-69
2024/04/17 08:53:19;;;;;;;4.03;1.55;;;10.70;100.00;;;;;;5419242;26;20553;-69
2024/04/17 08:55:47;;;;;;;3.83;1.05;;;10.50;100.00;;;;;;5445091;26;20096;-69
2024/04/17 08:58:15;;;;;;;4.35;1.20;;;10.30;100.00;;;;;;5445790;26;20419;-69
2024/04/17 09:00:43;;;;;;;4.68;1.48;;;10.20;100.00;;;;;;5447182;26;19998;-68
2024/04/17 09:03:16;;;;;;;4.50;1.25;;;9.90;100.00;;;;;;5457384;26;20002;-69
2024/04/17 09:05:43;;;;;;;6.28;2.00;;;10.10;100.00;;;;;;5442578;26;20321;-69
2024/04/17 09:08:11;;;;;;;3.05;1.52;;;10.10;100.00;;;;;;5453778;26;20067;-68
2024/04/17 09:10:39;;;;;;;5.47;1.90;;;10.00;100.00;;;;;;5446848;26;20673;-69
2024/04/17 09:13:06;;;;;;;4.47;1.55;;;10.00;100.00;;;;;;5447327;26;20014;-69
2024/04/17 09:15:33;;;;;;;6.75;1.48;;;10.60;100.00;;;;;;5444568;26;20833;-69
2024/04/17 09:18:07;;;;;;;5.45;1.35;;;11.50;100.00;;;;;;5451084;26;20658;-69
2024/04/17 09:20:35;;;;;;;4.93;1.20;;;11.90;100.00;;;;;;5449736;26;20016;-69
2024/04/17 09:23:07;;;;;;;5.03;1.10;;;12.20;100.00;;;;;;5452414;26;19995;-69
2024/04/17 09:25:35;;;;;;;3.40;1.08;;;12.60;100.00;;;;;;5415133;26;20463;-69
2024/04/17 09:28:02;;;;;;;6.13;1.50;;;13.00;100.00;;;;;;5446910;26;19995;-69
2024/04/17 09:30:29;;;;;;;3.42;1.10;;;13.70;100.00;;;;;;5458586;26;20018;-70
2024/04/17 09:32:56;;;;;;;3.13;0.82;;;14.20;100.00;;;;;;5442842;26;20015;-69
2024/04/17 09:35:23;;;;;;;3.78;0.90;;;14.20;100.00;;;;;;5458831;26;20010;-69
2024/04/17 09:37:50;;;;;;;3.90;1.40;;;13.90;94.30;;;;;;5450567;26;20014;-67
2024/04/17 09:40:17;;;;;;;3.03;0.90;;;14.10;100.00;;;;;;5417891;26;20014;-67
2024/04/17 09:42:44;;;;;;;2.70;0.75;;;15.00;94.20;;;;;;5436950;26;20048;-67
2024/04/17 09:45:15;;;;;;;3.25;1.20;;;15.60;74.60;;;;;;5449809;26;20450;-67
2024/04/17 09:47:43;;;;;;;7.60;1.20;;;15.90;84.80;;;;;;5442604;26;20873;-67
2024/04/17 09:50:17;;;;;;;4.10;1.15;;;15.70;84.30;;;;;;5451222;26;20062;-67
2024/04/17 09:52:52;;;;;;;6.85;1.33;;;14.60;86.00;;;;;;5446012;26;20779;-69
2024/04/17 09:55:22;;;;;;;1.70;0.85;;;13.50;87.30;;;;;;5440804;26;20854;-70
2024/04/17 09:57:50;;;;;;;4.45;1.20;;;14.20;86.80;;;;;;5444976;26;20010;-70
2024/04/17 10:00:21;;;;;;;8.77;1.80;;;15.10;86.80;;;;;;5439913;26;20018;-70
2024/04/17 10:02:50;;;;;;;5.13;1.50;;;15.20;85.00;;;;;;5450462;26;20070;-70
2024/04/17 10:05:18;;;;;;;2.40;1.15;;;15.70;78.40;;;;;;5446724;26;20560;-70
2024/04/17 10:07:45;;;;;;;3.03;1.77;;;15.60;80.90;;;;;;5448754;26;20076;-70
2024/04/17 10:10:15;;;;;;;3.17;1.52;;;16.00;80.40;;;;;;5439080;26;20095;-69
2024/04/17 10:12:46;;;;;;;6.38;1.58;;;15.60;75.80;;;;;;5454882;26;19999;-69
2024/04/17 10:15:13;;;;;;;5.60;1.40;;;14.50;84.40;;;;;;5447466;26;20471;-68
2024/04/17 10:17:40;;;;;;;2.90;1.50;;;13.30;89.70;;;;;;5405142;26;20101;-68
2024/04/17 10:20:28;;;;;;;3.17;1.20;;;12.80;100.00;;;;;;5447962;26;20019;-68
2024/04/17 10:23:08;;;;;;;7.50;1.83;;;12.10;100.00;;;;;;5436737;26;20014;-68
2024/04/17 10:25:53;;;;;;;10.88;1.80;;;11.90;100.00;;;;;;5455855;26;19999;-68
2024/04/17 10:28:21;;;;;;;4.97;1.60;;;11.60;100.00;;;;;;5437452;26;19995;-68
2024/04/17 10:30:49;;;;;;;6.20;1.60;;;11.40;100.00;;;;;;5434634;26;20862;-68
2024/04/17 10:33:34;;;;;;;5.88;2.03;;;12.10;100.00;;;;;;5443626;26;19994;-69
2024/04/17 10:36:04;;;;;;;2.95;1.15;;;13.10;100.00;;;;;;5438807;26;20002;-69
2024/04/17 10:38:32;;;;;;;3.28;1.10;;;14.60;86.20;;;;;;5455662;26;20610;-69
2024/04/17 10:41:05;;;;;;;1.42;0.70;;;14.40;76.10;;;;;;5448839;26;19999;-69
2024/04/17 10:43:34;;;;;;;7.05;0.70;;;15.00;73.90;;;;;;5439211;26;19999;-69
2024/04/17 10:46:09;;;;;;;6.00;1.88;;;15.70;73.20;;;;;;5452772;26;20021;-69
2024/04/17 10:48:45;;;;;;;9.30;0.90;;;16.50;57.60;;;;;;5444615;26;20062;-69
2024/04/17 10:51:15;;;;;;;1.33;0.52;;;16.30;56.50;;;;;;5459148;26;20621;-70
2024/04/17 10:53:47;;;;;;;2.92;0.90;;;15.90;54.60;;;;;;5421067;26;20003;-70
2024/04/17 10:56:15;;;;;;;5.47;0.77;;;15.60;56.00;;;;;;5447495;26;20010;-69
2024/04/17 10:58:44;;;;;;;2.40;0.77;;;15.00;53.50;;;;;;5422082;26;20011;-69
2024/04/17 11:01:16;;;;;;;1.38;0.75;;;14.40;53.30;;;;;;5457723;26;20042;-69
2024/04/17 11:03:44;;;;;;;11.45;1.08;;;14.30;56.20;;;;;;5456186;26;20009;-69
2024/04/17 11:06:11;;;;;;;2.55;1.00;;;13.50;57.10;;;;;;5410928;26;20067;-69
2024/04/17 11:08:44;;;;;;;2.92;0.70;;;13.40;59.60;;;;;;5442742;26;20014;-69
2024/04/17 11:11:25;;;;;;;1.45;0.50;;;13.40;55.40;;;;;;5425641;26;20829;-69
2024/04/17 11:13:53;;;;;;;1.27;0.60;;;13.40;56.00;;;;;;5417680;26;20383;-69
2024/04/17 11:16:21;;;;;;;3.63;0.95;;;13.30;56.00;;;;;;5458815;26;20846;-71
2024/04/17 11:18:48;;;;;;;0.93;0.60;;;13.60;56.10;;;;;;5448831;26;20002;-72
2024/04/17 11:21:15;;;;;;;3.55;1.15;;;13.20;58.30;;;;;;5440869;26;20023;-71
2024/04/17 11:23:44;;;;;;;2.38;0.80;;;12.90;56.10;;;;;;5452708;26;20392;-72
2024/04/17 11:26:12;;;;;;;5.20;0.95;;;12.90;58.10;;;;;;5448254;26;20077;-72
2024/04/17 11:28:46;;;;;;;2.03;0.65;;;13.00;57.10;;;;;;5453244;26;20013;-71
2024/04/17 11:31:17;;;;;;;2.50;0.63;;;12.60;52.20;;;;;;5463100;26;20002;-71
2024/04/17 11:33:45;;;;;;;3.45;0.70;;;12.40;53.50;;;;;;5451650;26;20464;-71
2024/04/17 11:36:14;;;;;;;8.93;1.52;;;12.50;56.60;;;;;;5446232;26;20531;-71
2024/04/17 11:38:44;;;;;;;2.83;1.10;;;12.50;57.70;;;;;;5453970;26;20002;-72
2024/04/17 11:41:14;;;;;;;2.20;0.85;;;12.30;61.30;;;;;;5448876;26;19999;-72
2024/04/17 11:43:43;;;;;;;2.00;0.90;;;12.50;60.00;;;;;;5437798;26;20054;-71
2024/04/17 11:46:10;;;;;;;3.55;0.90;;;12.80;62.50;;;;;;5452585;26;20079;-71
2024/04/17 11:48:37;;;;;;;2.28;0.88;;;13.20;60.80;;;;;;5447983;26;20482;-72
2024/04/17 11:51:07;;;;;;;2.72;0.95;;;12.70;57.30;;;;;;5422846;26;20827;-72
2024/04/17 11:53:34;;;;;;;2.08;1.10;;;12.50;61.50;;;;;;5448800;26;20456;-72
2024/04/17 11:56:01;;;;;;;4.50;1.50;;;12.50;58.80;;;;;;5443298;26;20798;-72
2024/04/17 11:58:28;;;;;;;11.63;1.63;;;12.20;62.60;;;;;;5420381;26;20872;-72
2024/04/17 12:00:55;;;;;;;6.15;1.42;;;11.90;64.90;;;;;;5452663;26;20007;-72
2024/04/17 12:03:23;;;;;;;5.07;1.40;;;12.00;65.90;;;;;;5449628;26;20009;-72
2024/04/17 12:05:50;;;;;;;2.35;0.90;;;12.10;66.80;;;;;;5450776;26;20002;-73
2024/04/17 12:08:20;;;;;;;2.97;0.90;;;12.10;65.90;;;;;;5448199;26;20782;-72
2024/04/17 12:10:47;;;;;;;4.20;1.13;;;11.60;70.00;;;;;;5455334;26;20002;-72
2024/04/17 12:13:17;;;;;;;4.40;1.23;;;11.50;68.00;;;;;;5416727;26;20044;-72
2024/04/17 12:15:43;;;;;;;2.65;1.20;;;11.20;69.80;;;;;;5452273;26;20018;-72
2024/04/17 12:18:13;;;;;;;3.03;0.70;;;11.50;71.00;;;;;;5447775;26;19998;-72
2024/04/17 12:20:42;;;;;;;3.53;0.98;;;11.80;66.90;;;;;;5415154;26;20018;-72
2024/04/17 12:23:09;;;;;;;3.67;0.88;;;12.20;64.50;;;;;;5452113;26;20002;-70
2024/04/17 12:28:21;;;;;;;6.50;1.00;;;12.40;57.10;;;;;;5453413;26;20011;-72
2024/04/17 12:30:48;;;;;;;8.10;1.52;;;12.80;57.50;;;;;;5453969;26;20408;-72
2024/04/17 12:33:15;;;;;;;3.40;1.40;;;13.30;60.00;;;;;;5440510;26;20080;-72
2024/04/17 12:35:42;;;;;;;2.70;0.90;;;14.40;59.50;;;;;;5437340;26;20007;-72
2024/04/17 12:38:09;;;;;;;2.33;1.10;;;15.50;55.70;;;;;;5431271;26;20006;-72
2024/04/17 12:40:36;;;;;;;1.30;0.57;;;16.40;52.60;;;;;;5451280;26;19999;-72
2024/04/17 12:43:04;;;;;;;1.35;0.70;;;16.50;49.30;;;;;;5440883;26;20026;-70
2024/04/17 12:45:32;;;;;;;3.90;1.00;;;16.50;52.50;;;;;;5413406;26;20014;-69
2024/04/17 12:47:59;;;;;;;1.73;0.90;;;17.60;50.50;;;;;;5415754;26;20026;-71
2024/04/17 12:50:26;;;;;;;1.60;1.00;;;18.60;51.30;;;;;;5400515;26;20435;-68